Time;durP1;ratioP1;P1;durP2;ratioP2;P2;SDS_P1;SDS_P2;PMS_P1;PMS_P2;Temp;Humidity;BMP_temperature;BMP_pressure;BME280_temperature;BME280_humidity;BME280_pressure;Samples;Min_cycle;Max_cycle;Signal;HPM_P1;HPM_P2
2023/12/23 00:02:21;;;;;;;0.95;0.73;;;14.90;74.90;;;;;;4998100;28;20045;-80
2023/12/23 00:04:46;;;;;;;1.02;0.95;;;14.90;74.80;;;;;;4978686;28;20041;-80
2023/12/23 00:07:14;;;;;;;0.57;0.55;;;14.90;74.80;;;;;;5008690;28;20052;-81
2023/12/23 00:09:42;;;;;;;0.90;0.77;;;14.90;74.80;;;;;;4999542;28;20425;-81
2023/12/23 00:12:08;;;;;;;0.70;0.57;;;14.90;75.00;;;;;;5002978;28;20045;-80
2023/12/23 00:14:34;;;;;;;0.52;0.40;;;14.90;74.90;;;;;;4995383;28;20076;-80
2023/12/23 00:17:00;;;;;;;0.68;0.50;;;14.90;75.70;;;;;;4992167;28;20042;-80
2023/12/23 00:19:26;;;;;;;1.05;0.68;;;14.90;74.80;;;;;;4984894;28;20103;-81
2023/12/23 00:21:51;;;;;;;0.85;0.70;;;14.90;74.70;;;;;;4996511;28;20069;-81
2023/12/23 00:24:17;;;;;;;0.75;0.75;;;14.90;74.70;;;;;;5001792;28;20048;-81
2023/12/23 00:26:42;;;;;;;0.77;0.63;;;14.90;74.90;;;;;;5016806;28;20121;-80
2023/12/23 00:29:08;;;;;;;0.70;0.70;;;14.90;74.90;;;;;;4998256;28;20054;-80
2023/12/23 00:31:33;;;;;;;0.73;0.70;;;14.90;75.00;;;;;;4980206;28;20260;-80
2023/12/23 00:33:59;;;;;;;0.40;0.40;;;14.90;75.00;;;;;;4979621;28;20148;-80
2023/12/23 00:36:25;;;;;;;1.33;0.50;;;14.90;74.80;;;;;;4984388;28;20503;-80
2023/12/23 00:38:50;;;;;;;0.63;0.55;;;14.90;74.90;;;;;;5013607;28;20122;-82
2023/12/23 00:41:16;;;;;;;0.70;0.60;;;14.90;75.00;;;;;;4976477;28;20045;-81
2023/12/23 00:43:41;;;;;;;0.68;0.63;;;14.90;74.90;;;;;;4998233;28;20042;-82
2023/12/23 00:46:10;;;;;;;0.70;0.70;;;14.80;75.90;;;;;;4997563;28;20033;-81
2023/12/23 00:48:37;;;;;;;1.15;0.70;;;14.90;75.10;;;;;;4997936;28;20046;-81
2023/12/23 00:51:03;;;;;;;0.50;0.50;;;14.90;75.10;;;;;;5009197;28;20042;-81
2023/12/23 00:53:29;;;;;;;0.50;0.50;;;14.80;75.00;;;;;;4992056;28;20073;-81
2023/12/23 00:55:54;;;;;;;0.50;0.50;;;14.80;75.10;;;;;;5004392;28;20113;-81
2023/12/23 00:58:20;;;;;;;0.68;0.45;;;14.80;75.20;;;;;;4995033;28;20042;-81
2023/12/23 01:00:46;;;;;;;0.75;0.70;;;14.80;75.10;;;;;;4997598;28;20064;-81
2023/12/23 01:03:12;;;;;;;1.13;0.80;;;14.80;75.50;;;;;;4979423;28;20036;-81
2023/12/23 01:05:37;;;;;;;0.50;0.40;;;14.80;75.30;;;;;;4968199;28;20092;-81
2023/12/23 01:08:03;;;;;;;1.77;0.43;;;14.80;75.40;;;;;;4987749;28;20050;-81
2023/12/23 01:10:29;;;;;;;0.40;0.40;;;14.80;75.70;;;;;;4973930;28;20039;-81
2023/12/23 01:12:54;;;;;;;0.90;0.50;;;14.80;75.30;;;;;;4971171;28;20042;-81
2023/12/23 01:15:20;;;;;;;0.60;0.60;;;14.80;75.30;;;;;;4964106;28;20037;-81
2023/12/23 01:17:46;;;;;;;0.70;0.50;;;14.80;75.40;;;;;;4996973;28;20065;-82
2023/12/23 01:20:11;;;;;;;0.82;0.57;;;14.80;75.50;;;;;;4960020;28;20526;-81
2023/12/23 01:22:37;;;;;;;0.57;0.43;;;14.80;75.40;;;;;;4976870;28;20508;-82
2023/12/23 01:25:03;;;;;;;0.40;0.40;;;14.80;75.20;;;;;;5004037;28;20046;-81
2023/12/23 01:27:28;;;;;;;0.50;0.35;;;14.80;75.40;;;;;;4983470;28;20032;-81
2023/12/23 01:29:54;;;;;;;0.20;0.20;;;14.80;75.40;;;;;;4985733;28;20125;-81
2023/12/23 01:32:20;;;;;;;0.50;0.50;;;14.80;76.20;;;;;;5003802;28;20065;-81
2023/12/23 01:34:47;;;;;;;0.55;0.40;;;14.80;75.60;;;;;;4995220;28;20045;-80
2023/12/23 01:37:12;;;;;;;0.55;0.45;;;14.80;75.40;;;;;;5013962;28;20415;-81
2023/12/23 01:39:38;;;;;;;0.30;0.30;;;14.80;75.40;;;;;;5014896;28;20050;-82
2023/12/23 01:42:04;;;;;;;0.30;0.30;;;14.80;75.40;;;;;;4977077;28;20031;-81
2023/12/23 01:44:30;;;;;;;0.65;0.47;;;14.80;75.50;;;;;;4982330;28;20038;-80
2023/12/23 01:46:55;;;;;;;0.57;0.43;;;14.80;75.50;;;;;;4992791;28;20492;-81
2023/12/23 01:49:21;;;;;;;0.40;0.40;;;14.80;75.20;;;;;;4982789;28;20489;-81
2023/12/23 01:51:47;;;;;;;0.60;0.50;;;14.80;75.50;;;;;;4981193;28;20042;-81
2023/12/23 01:54:12;;;;;;;0.30;0.30;;;14.80;75.50;;;;;;4991209;28;20049;-81
2023/12/23 01:56:38;;;;;;;0.45;0.45;;;14.80;75.50;;;;;;4989187;28;20048;-84
2023/12/23 01:59:04;;;;;;;1.10;0.50;;;14.80;75.50;;;;;;4991263;28;20037;-83
2023/12/23 02:01:31;;;;;;;0.70;0.47;;;14.80;75.20;;;;;;4992527;28;20034;-84
2023/12/23 02:03:56;;;;;;;0.50;0.50;;;14.80;75.40;;;;;;4979913;28;20073;-84
2023/12/23 02:06:22;;;;;;;0.60;0.35;;;14.80;75.30;;;;;;4992197;28;20059;-84
2023/12/23 02:08:47;;;;;;;0.40;0.40;;;14.80;75.40;;;;;;4973629;28;20046;-84
2023/12/23 02:11:21;;;;;;;0.57;0.35;;;14.80;75.20;;;;;;4975661;28;20157;-80
2023/12/23 02:13:54;;;;;;;0.45;0.45;;;14.80;75.50;;;;;;4994932;28;20041;-80
2023/12/23 02:16:20;;;;;;;0.70;0.50;;;14.80;75.20;;;;;;4989247;28;20173;-81
2023/12/23 02:18:45;;;;;;;0.50;0.50;;;14.80;75.20;;;;;;4995896;28;20129;-80
2023/12/23 02:21:11;;;;;;;0.80;0.50;;;14.80;75.30;;;;;;4992409;28;20496;-80
2023/12/23 02:23:36;;;;;;;0.55;0.40;;;14.80;75.40;;;;;;4996796;28;20393;-81
2023/12/23 02:26:02;;;;;;;0.52;0.52;;;14.80;75.40;;;;;;4988787;28;20038;-81
2023/12/23 02:28:27;;;;;;;0.50;0.30;;;14.80;75.30;;;;;;4989890;28;20049;-81
2023/12/23 02:30:53;;;;;;;0.60;0.60;;;14.80;75.30;;;;;;4994147;28;20042;-81
2023/12/23 02:33:19;;;;;;;0.43;0.43;;;14.80;75.40;;;;;;4975279;28;20049;-80
2023/12/23 02:35:45;;;;;;;0.65;0.60;;;14.80;75.40;;;;;;4984708;28;20108;-80
2023/12/23 02:38:12;;;;;;;0.70;0.50;;;14.80;75.30;;;;;;4982887;28;20042;-80
2023/12/23 02:40:38;;;;;;;0.60;0.43;;;14.80;75.30;;;;;;4990380;28;20504;-80
2023/12/23 02:43:03;;;;;;;0.50;0.40;;;14.80;75.50;;;;;;4978593;28;20049;-81
2023/12/23 02:45:29;;;;;;;0.60;0.47;;;14.80;75.30;;;;;;4970501;28;20053;-81
2023/12/23 02:47:54;;;;;;;0.45;0.38;;;14.80;75.40;;;;;;4991020;28;20073;-81
2023/12/23 02:50:20;;;;;;;0.38;0.38;;;14.80;75.50;;;;;;4991159;28;20038;-81
2023/12/23 02:52:46;;;;;;;0.40;0.40;;;14.80;75.60;;;;;;4993053;28;20066;-81
2023/12/23 02:55:11;;;;;;;0.47;0.47;;;14.80;75.90;;;;;;4970963;28;20047;-81
2023/12/23 02:57:37;;;;;;;0.65;0.40;;;14.80;75.60;;;;;;4956275;28;20042;-81
2023/12/23 03:00:03;;;;;;;0.32;0.25;;;14.80;75.50;;;;;;4979920;28;20101;-81
2023/12/23 03:02:28;;;;;;;0.88;0.43;;;14.80;75.80;;;;;;4995016;28;20472;-81
2023/12/23 03:04:54;;;;;;;0.35;0.35;;;14.80;75.40;;;;;;5011996;28;20049;-81
2023/12/23 03:07:20;;;;;;;0.30;0.30;;;14.80;75.30;;;;;;4990934;28;20026;-81
2023/12/23 03:09:45;;;;;;;0.50;0.20;;;14.80;75.30;;;;;;4996059;28;20504;-81
2023/12/23 03:12:11;;;;;;;0.40;0.30;;;14.70;75.20;;;;;;4997888;28;20045;-82
2023/12/23 03:14:36;;;;;;;0.30;0.30;;;14.70;75.40;;;;;;4976571;28;20056;-81
2023/12/23 03:17:03;;;;;;;0.50;0.30;;;14.80;75.20;;;;;;4985880;28;20520;-82
2023/12/23 03:19:28;;;;;;;0.60;0.50;;;14.80;75.20;;;;;;4968515;28;20503;-81
2023/12/23 03:21:54;;;;;;;0.32;0.32;;;14.80;75.20;;;;;;4998532;28;20053;-81
2023/12/23 03:24:19;;;;;;;0.60;0.55;;;14.80;75.10;;;;;;4980938;28;20078;-82
2023/12/23 03:26:45;;;;;;;0.30;0.30;;;14.80;75.10;;;;;;5001243;28;20069;-81
2023/12/23 03:29:11;;;;;;;1.63;0.40;;;14.80;75.10;;;;;;5009629;28;20034;-81
2023/12/23 03:31:36;;;;;;;0.30;0.30;;;14.80;75.40;;;;;;4980017;28;20108;-81
2023/12/23 03:34:02;;;;;;;0.45;0.40;;;14.80;75.10;;;;;;4977905;28;20054;-81
2023/12/23 03:36:28;;;;;;;0.40;0.30;;;14.80;75.20;;;;;;4995174;28;20042;-80
2023/12/23 03:38:55;;;;;;;0.20;0.20;;;14.80;75.30;;;;;;5005962;28;20038;-80
2023/12/23 03:41:21;;;;;;;0.10;0.10;;;14.70;75.30;;;;;;4993156;28;20049;-80
2023/12/23 03:43:46;;;;;;;0.35;0.35;;;14.70;75.20;;;;;;4987130;28;20049;-80
2023/12/23 03:46:12;;;;;;;0.30;0.30;;;14.70;75.30;;;;;;5018143;28;20045;-82
2023/12/23 03:48:37;;;;;;;1.02;0.40;;;14.70;75.40;;;;;;4973426;28;20510;-81
2023/12/23 03:51:03;;;;;;;0.35;0.30;;;14.70;75.40;;;;;;4980705;28;20570;-81
2023/12/23 03:53:29;;;;;;;0.30;0.30;;;14.70;75.40;;;;;;4976343;28;20435;-81
2023/12/23 03:55:54;;;;;;;0.40;0.40;;;14.70;75.30;;;;;;4967183;28;20126;-81
2023/12/23 03:58:20;;;;;;;0.20;0.20;;;14.70;75.40;;;;;;4978248;28;20073;-81
2023/12/23 04:00:47;;;;;;;0.32;0.30;;;14.70;75.20;;;;;;4987862;28;20082;-81
2023/12/23 04:03:12;;;;;;;0.25;0.25;;;14.80;75.50;;;;;;4981013;28;20508;-81
2023/12/23 04:05:38;;;;;;;0.50;0.45;;;14.70;75.30;;;;;;4964085;28;20054;-80
2023/12/23 04:08:04;;;;;;;0.30;0.30;;;14.80;75.30;;;;;;4968170;28;20587;-80
2023/12/23 04:10:29;;;;;;;0.15;0.13;;;14.80;75.30;;;;;;4988088;28;20051;-80
2023/12/23 04:12:55;;;;;;;0.40;0.40;;;14.80;75.30;;;;;;4974770;28;20039;-81
2023/12/23 04:15:20;;;;;;;0.52;0.40;;;14.80;75.40;;;;;;4936396;28;20057;-80
2023/12/23 04:17:46;;;;;;;0.40;0.30;;;14.80;75.30;;;;;;4950843;28;20039;-80
2023/12/23 04:20:12;;;;;;;0.30;0.30;;;14.70;75.40;;;;;;4957070;28;20129;-80
2023/12/23 04:22:37;;;;;;;0.28;0.28;;;14.70;75.40;;;;;;4967445;28;20062;-80
2023/12/23 04:25:03;;;;;;;0.40;0.30;;;14.70;75.30;;;;;;4970961;28;20524;-81
2023/12/23 04:27:29;;;;;;;0.30;0.30;;;14.70;75.30;;;;;;4953594;28;20094;-81
2023/12/23 04:29:54;;;;;;;0.40;0.35;;;14.70;75.50;;;;;;4970411;28;20043;-80
2023/12/23 04:32:20;;;;;;;0.25;0.25;;;14.70;75.40;;;;;;4949908;28;20557;-81
2023/12/23 04:34:45;;;;;;;0.40;0.28;;;14.70;75.30;;;;;;4951249;28;20112;-81
2023/12/23 04:37:11;;;;;;;0.30;0.20;;;14.70;75.20;;;;;;4966027;28;20031;-81
2023/12/23 04:39:36;;;;;;;0.40;0.22;;;14.70;75.40;;;;;;4985754;28;20097;-81
2023/12/23 04:42:02;;;;;;;0.50;0.38;;;14.70;75.50;;;;;;4984457;28;20528;-81
2023/12/23 04:44:28;;;;;;;0.50;0.38;;;14.70;75.50;;;;;;4969212;28;20055;-80
2023/12/23 04:46:53;;;;;;;0.52;0.52;;;14.70;75.40;;;;;;4948848;28;20027;-80
2023/12/23 04:49:19;;;;;;;0.40;0.30;;;14.70;75.50;;;;;;4926000;28;20065;-81
2023/12/23 04:51:45;;;;;;;0.65;0.30;;;14.70;75.30;;;;;;4968883;28;20041;-80
2023/12/23 04:54:11;;;;;;;0.25;0.20;;;14.70;75.40;;;;;;4969346;28;20058;-80
2023/12/23 04:56:37;;;;;;;0.30;0.30;;;14.70;75.30;;;;;;4972513;28;20038;-80
2023/12/23 04:59:03;;;;;;;0.22;0.20;;;14.70;75.30;;;;;;4985728;28;20053;-80
2023/12/23 05:01:29;;;;;;;0.45;0.40;;;14.70;75.30;;;;;;5000296;28;20472;-80
2023/12/23 05:03:54;;;;;;;0.32;0.32;;;14.70;75.90;;;;;;4984799;28;20505;-80
2023/12/23 05:06:20;;;;;;;0.30;0.30;;;14.70;75.40;;;;;;4992157;28;20045;-80
2023/12/23 05:08:45;;;;;;;0.43;0.40;;;14.70;75.50;;;;;;4987286;28;20038;-80
2023/12/23 05:11:11;;;;;;;0.28;0.28;;;14.70;75.40;;;;;;4984399;28;20042;-79
2023/12/23 05:13:36;;;;;;;0.40;0.30;;;14.70;75.30;;;;;;4984462;28;20042;-80
2023/12/23 05:16:02;;;;;;;0.93;0.20;;;14.70;75.60;;;;;;4970936;28;20125;-80
2023/12/23 05:18:28;;;;;;;0.32;0.20;;;14.70;75.70;;;;;;4970977;28;20066;-80
2023/12/23 05:20:53;;;;;;;0.65;0.47;;;14.70;75.40;;;;;;4976056;28;20040;-81
2023/12/23 05:23:19;;;;;;;0.30;0.30;;;14.70;75.40;;;;;;4971389;28;20122;-80
2023/12/23 05:25:45;;;;;;;0.55;0.50;;;14.70;76.10;;;;;;4968094;28;20054;-80
2023/12/23 05:28:11;;;;;;;0.22;0.22;;;14.70;75.50;;;;;;4990800;28;20444;-80
2023/12/23 05:30:36;;;;;;;0.70;0.40;;;14.70;75.30;;;;;;4973853;28;20054;-80
2023/12/23 05:33:02;;;;;;;0.80;0.30;;;14.70;75.50;;;;;;5002387;28;20393;-80
2023/12/23 05:35:28;;;;;;;0.20;0.20;;;14.70;75.30;;;;;;4972013;28;20050;-80
2023/12/23 05:37:53;;;;;;;0.63;0.20;;;14.70;75.50;;;;;;4991066;28;20639;-80
2023/12/23 05:40:19;;;;;;;0.28;0.20;;;14.70;75.30;;;;;;4991185;28;20158;-80
2023/12/23 05:42:44;;;;;;;0.30;0.28;;;14.70;75.40;;;;;;4972455;28;20053;-80
2023/12/23 05:45:10;;;;;;;0.40;0.40;;;14.70;75.40;;;;;;4975432;28;20519;-80
2023/12/23 05:47:36;;;;;;;0.35;0.32;;;14.70;75.50;;;;;;4987154;28;20052;-80
2023/12/23 05:50:01;;;;;;;0.45;0.22;;;14.70;75.30;;;;;;5006477;28;20044;-79
2023/12/23 05:52:27;;;;;;;0.28;0.20;;;14.70;75.30;;;;;;4969154;28;20507;-79
2023/12/23 05:54:52;;;;;;;0.20;0.20;;;14.70;75.30;;;;;;4984012;28;20109;-79
2023/12/23 05:57:18;;;;;;;0.22;0.20;;;14.70;75.30;;;;;;4968435;28;20065;-80
2023/12/23 05:59:44;;;;;;;0.20;0.20;;;14.70;75.40;;;;;;4984615;28;20061;-79
2023/12/23 06:02:09;;;;;;;0.40;0.40;;;14.70;75.50;;;;;;4984887;28;20525;-79
2023/12/23 06:04:35;;;;;;;0.20;0.20;;;14.70;75.30;;;;;;4988288;28;20086;-80
2023/12/23 06:07:00;;;;;;;0.40;0.30;;;14.70;75.20;;;;;;4973899;28;20097;-80
2023/12/23 06:09:26;;;;;;;0.30;0.30;;;14.70;75.10;;;;;;4984872;28;20046;-80
2023/12/23 06:11:51;;;;;;;0.20;0.20;;;14.70;76.00;;;;;;4965862;28;20149;-80
2023/12/23 06:14:17;;;;;;;0.20;0.20;;;14.70;75.40;;;;;;4966635;28;20046;-80
2023/12/23 06:16:43;;;;;;;0.40;0.20;;;14.70;75.30;;;;;;4952106;28;20516;-80
2023/12/23 06:19:08;;;;;;;0.10;0.10;;;14.70;75.30;;;;;;4971300;28;20519;-80
2023/12/23 06:21:34;;;;;;;0.20;0.20;;;14.70;75.40;;;;;;4984339;28;20448;-81
2023/12/23 06:23:59;;;;;;;0.40;0.30;;;14.70;75.20;;;;;;4988412;28;20046;-81
2023/12/23 06:26:25;;;;;;;0.22;0.20;;;14.70;75.30;;;;;;4951451;28;20045;-82
2023/12/23 06:28:51;;;;;;;0.30;0.30;;;14.70;75.20;;;;;;4953464;28;20513;-82
2023/12/23 06:31:16;;;;;;;0.30;0.30;;;14.70;75.10;;;;;;4981640;28;20057;-81
2023/12/23 06:33:42;;;;;;;0.17;0.17;;;14.70;75.10;;;;;;4987250;28;20038;-82
2023/12/23 06:36:08;;;;;;;0.75;0.75;;;14.70;75.10;;;;;;4984019;28;20532;-81
2023/12/23 06:38:34;;;;;;;0.30;0.20;;;14.70;75.10;;;;;;4983251;28;20036;-82
2023/12/23 06:41:00;;;;;;;0.30;0.30;;;14.70;75.00;;;;;;4986188;28;20169;-81
2023/12/23 06:43:26;;;;;;;0.22;0.20;;;14.70;75.00;;;;;;4950581;28;20114;-80
2023/12/23 06:45:51;;;;;;;0.50;0.30;;;14.70;75.10;;;;;;4986619;28;20046;-80
2023/12/23 06:48:17;;;;;;;0.30;0.30;;;14.70;75.10;;;;;;4977922;28;20412;-80
2023/12/23 06:50:42;;;;;;;0.30;0.28;;;14.70;75.10;;;;;;4982843;28;20057;-80
2023/12/23 06:53:08;;;;;;;0.40;0.40;;;14.70;75.30;;;;;;4990848;28;20523;-82
2023/12/23 06:55:34;;;;;;;0.25;0.20;;;14.70;75.20;;;;;;4988578;28;20054;-81
2023/12/23 06:58:00;;;;;;;0.47;0.40;;;14.70;75.20;;;;;;4992346;28;20049;-83
2023/12/23 07:00:26;;;;;;;0.30;0.30;;;14.70;75.10;;;;;;4972047;28;20038;-81
2023/12/23 07:02:52;;;;;;;0.20;0.20;;;14.70;75.10;;;;;;4991174;28;20027;-82
2023/12/23 07:05:18;;;;;;;0.30;0.20;;;14.70;75.20;;;;;;4967744;28;20444;-82
2023/12/23 07:07:44;;;;;;;0.40;0.30;;;14.70;75.30;;;;;;4970596;28;20042;-83
2023/12/23 07:10:10;;;;;;;0.30;0.30;;;14.70;75.20;;;;;;4983575;28;20211;-83
2023/12/23 07:12:36;;;;;;;0.13;0.13;;;14.70;75.10;;;;;;4972081;28;20085;-83
2023/12/23 07:15:03;;;;;;;0.25;0.20;;;14.70;75.00;;;;;;4957348;28;20061;-82
2023/12/23 07:17:29;;;;;;;0.40;0.10;;;14.70;75.10;;;;;;4969611;28;20038;-82
2023/12/23 07:19:54;;;;;;;0.10;0.10;;;14.70;75.10;;;;;;4986764;28;20030;-82
2023/12/23 07:22:20;;;;;;;0.40;0.30;;;14.70;75.10;;;;;;4988773;28;20049;-82
2023/12/23 07:24:45;;;;;;;0.28;0.28;;;14.70;75.80;;;;;;4991812;28;20150;-81
2023/12/23 07:27:11;;;;;;;0.20;0.20;;;14.70;75.10;;;;;;4988973;28;20073;-82
2023/12/23 07:29:40;;;;;;;0.20;0.20;;;14.70;75.10;;;;;;4973259;28;20099;-81
2023/12/23 07:32:06;;;;;;;0.28;0.20;;;14.70;75.10;;;;;;4985926;28;20047;-81
2023/12/23 07:34:31;;;;;;;0.22;0.20;;;14.70;75.20;;;;;;4968067;28;20072;-80
2023/12/23 07:36:57;;;;;;;2.38;0.20;;;14.70;75.10;;;;;;4986475;28;20054;-80
2023/12/23 07:39:23;;;;;;;0.10;0.10;;;14.80;75.00;;;;;;4993387;28;20059;-81
2023/12/23 07:41:48;;;;;;;0.45;0.20;;;14.80;75.00;;;;;;4989563;28;20049;-81
2023/12/23 07:44:14;;;;;;;0.43;0.30;;;14.70;75.30;;;;;;4984189;28;20109;-80
2023/12/23 07:46:39;;;;;;;0.25;0.25;;;14.70;75.50;;;;;;4992451;28;20046;-80
2023/12/23 07:49:05;;;;;;;0.30;0.30;;;14.70;75.40;;;;;;4991331;28;20265;-81
2023/12/23 07:51:31;;;;;;;0.20;0.20;;;14.70;75.50;;;;;;4989163;28;20042;-83
2023/12/23 07:53:56;;;;;;;0.28;0.20;;;14.80;75.50;;;;;;4983424;28;20054;-83
2023/12/23 07:56:24;;;;;;;1.00;0.50;;;14.80;75.50;;;;;;4636531;28;10000576;-84
2023/12/23 07:58:49;;;;;;;0.90;0.40;;;14.80;75.60;;;;;;4984665;28;20046;-83
2023/12/23 08:01:15;;;;;;;0.40;0.30;;;14.80;75.50;;;;;;4994453;28;20128;-83
2023/12/23 08:03:41;;;;;;;4.78;0.30;;;14.90;75.20;;;;;;4991568;28;20058;-83
2023/12/23 08:06:06;;;;;;;0.60;0.40;;;14.90;75.10;;;;;;4988749;28;20050;-84
2023/12/23 08:08:32;;;;;;;0.28;0.28;;;14.80;75.20;;;;;;4973506;28;20594;-84
2023/12/23 08:10:58;;;;;;;0.40;0.40;;;14.80;75.10;;;;;;4971291;28;20492;-84
2023/12/23 08:13:23;;;;;;;0.52;0.52;;;14.80;75.30;;;;;;4984168;28;20476;-83
2023/12/23 08:15:49;;;;;;;0.63;0.28;;;14.80;75.10;;;;;;4995599;28;20125;-83
2023/12/23 08:18:17;;;;;;;0.22;0.20;;;14.80;75.00;;;;;;4995792;28;20058;-82
2023/12/23 08:20:43;;;;;;;0.55;0.30;;;14.80;74.70;;;;;;4989113;28;20072;-83
2023/12/23 08:23:09;;;;;;;0.75;0.32;;;14.80;74.40;;;;;;4984156;28;20117;-82
2023/12/23 08:25:34;;;;;;;0.40;0.20;;;14.90;74.40;;;;;;4996876;28;20677;-82
2023/12/23 08:28:00;;;;;;;0.75;0.20;;;14.90;74.30;;;;;;4995416;28;20433;-82
2023/12/23 08:30:25;;;;;;;0.30;0.20;;;14.90;74.40;;;;;;4999883;28;20054;-82
2023/12/23 08:32:51;;;;;;;0.70;0.52;;;14.90;74.50;;;;;;4993331;28;20043;-82
2023/12/23 08:35:16;;;;;;;0.25;0.25;;;14.90;74.30;;;;;;4995914;28;20042;-82
2023/12/23 08:37:42;;;;;;;0.77;0.40;;;14.90;74.30;;;;;;4988799;28;20126;-81
2023/12/23 08:40:08;;;;;;;0.25;0.20;;;14.90;74.30;;;;;;4993415;28;20047;-82
2023/12/23 08:42:34;;;;;;;1.40;0.40;;;14.80;74.30;;;;;;4976173;28;20500;-82
2023/12/23 08:44:59;;;;;;;0.45;0.25;;;14.90;74.30;;;;;;4972537;28;20044;-82
2023/12/23 08:47:25;;;;;;;0.55;0.28;;;14.90;74.10;;;;;;4975943;28;20460;-82
2023/12/23 08:49:50;;;;;;;0.17;0.10;;;14.90;74.20;;;;;;4988966;28;20042;-82
2023/12/23 08:52:16;;;;;;;0.30;0.20;;;14.80;74.20;;;;;;4971096;28;20052;-82
2023/12/23 08:54:42;;;;;;;0.17;0.10;;;14.80;74.20;;;;;;4993642;28;20118;-82
2023/12/23 08:57:07;;;;;;;0.30;0.30;;;14.90;74.20;;;;;;4998707;28;20077;-82
2023/12/23 08:59:33;;;;;;;0.52;0.30;;;14.90;74.20;;;;;;4972545;28;20093;-82
2023/12/23 09:02:03;;;;;;;0.28;0.10;;;14.80;75.00;;;;;;4990010;28;20062;-82
2023/12/23 09:04:29;;;;;;;0.45;0.20;;;14.90;74.30;;;;;;4987885;28;20050;-82
2023/12/23 09:06:55;;;;;;;0.20;0.20;;;14.80;74.40;;;;;;4992524;28;20043;-82
2023/12/23 09:09:21;;;;;;;0.20;0.10;;;14.80;74.20;;;;;;4971574;28;20523;-82
2023/12/23 09:11:46;;;;;;;0.20;0.20;;;14.80;74.80;;;;;;4992508;28;20038;-82
2023/12/23 09:14:12;;;;;;;0.20;0.20;;;14.90;74.10;;;;;;4983577;28;20046;-82
2023/12/23 09:16:38;;;;;;;0.10;0.10;;;14.80;74.20;;;;;;5003482;28;20428;-82
2023/12/23 09:19:04;;;;;;;0.30;0.25;;;14.80;74.40;;;;;;4993507;28;20035;-82
2023/12/23 09:21:29;;;;;;;1.75;0.20;;;14.80;74.70;;;;;;4978352;28;20096;-82
2023/12/23 09:23:55;;;;;;;0.20;0.20;;;14.80;75.10;;;;;;4972100;28;20424;-82
2023/12/23 09:26:23;;;;;;;0.22;0.10;;;14.90;74.20;;;;;;4985703;28;20142;-82
2023/12/23 09:28:49;;;;;;;0.47;0.20;;;14.90;74.20;;;;;;4964306;28;20043;-82
2023/12/23 09:31:14;;;;;;;2.67;0.68;;;14.90;74.10;;;;;;4989824;28;20568;-82
2023/12/23 09:33:40;;;;;;;0.20;0.20;;;14.90;74.00;;;;;;4993915;28;20415;-82
2023/12/23 09:36:06;;;;;;;0.30;0.10;;;14.80;74.10;;;;;;4993064;28;20049;-82
2023/12/23 09:38:32;;;;;;;0.22;0.10;;;14.90;74.10;;;;;;4990059;28;20054;-82
2023/12/23 09:40:57;;;;;;;0.30;0.30;;;14.90;74.10;;;;;;4990698;28;20496;-82
2023/12/23 09:43:23;;;;;;;0.20;0.20;;;14.90;73.90;;;;;;4973096;28;20085;-82
2023/12/23 09:45:49;;;;;;;0.17;0.17;;;14.90;74.00;;;;;;4988287;28;20101;-82
2023/12/23 09:48:15;;;;;;;0.20;0.20;;;14.90;74.00;;;;;;4988950;28;20034;-82
2023/12/23 09:50:41;;;;;;;0.20;0.20;;;14.90;74.00;;;;;;4975297;28;22440;-82
2023/12/23 09:53:07;;;;;;;0.30;0.30;;;14.90;74.20;;;;;;4978364;28;20129;-82
2023/12/23 09:55:33;;;;;;;0.10;0.10;;;14.90;74.10;;;;;;4971923;28;20073;-83
2023/12/23 09:57:59;;;;;;;0.10;0.10;;;14.90;74.00;;;;;;4976555;28;20089;-82
2023/12/23 10:00:25;;;;;;;0.10;0.10;;;14.90;73.90;;;;;;4981369;28;20484;-82
2023/12/23 10:02:50;;;;;;;0.13;0.10;;;14.90;74.00;;;;;;4985448;28;20122;-82
2023/12/23 10:05:16;;;;;;;0.20;0.10;;;14.90;73.90;;;;;;4988271;28;20089;-83
2023/12/23 10:07:42;;;;;;;0.20;0.20;;;14.90;73.90;;;;;;4976658;28;20119;-82
2023/12/23 10:10:07;;;;;;;0.10;0.10;;;14.90;74.00;;;;;;4987176;28;20051;-82
2023/12/23 10:12:33;;;;;;;0.20;0.20;;;14.90;73.90;;;;;;5004028;28;20042;-82
2023/12/23 10:14:59;;;;;;;0.05;0.05;;;14.90;74.00;;;;;;4979021;28;20124;-83
2023/12/23 10:17:24;;;;;;;0.17;0.10;;;14.90;74.00;;;;;;4988155;28;20049;-82
2023/12/23 10:19:52;;;;;;;0.10;0.10;;;14.90;73.90;;;;;;4988904;28;20042;-82
2023/12/23 10:22:18;;;;;;;0.22;0.20;;;14.90;73.90;;;;;;4977400;28;20119;-82
2023/12/23 10:24:43;;;;;;;0.17;0.10;;;14.90;74.70;;;;;;4995384;28;20043;-82
2023/12/23 10:27:09;;;;;;;0.17;0.10;;;14.90;74.00;;;;;;4966637;28;20060;-82
2023/12/23 10:29:35;;;;;;;0.20;0.10;;;14.90;73.90;;;;;;4981304;28;20041;-82
2023/12/23 10:32:03;;;;;;;0.00;0.00;;;14.90;73.90;;;;;;4996194;28;20581;-83
2023/12/23 10:34:32;;;;;;;0.10;0.10;;;15.00;74.00;;;;;;4991576;28;20050;-82
2023/12/23 10:36:57;;;;;;;0.10;0.00;;;14.90;74.00;;;;;;5003938;28;20065;-83
2023/12/23 10:39:26;;;;;;;0.08;0.08;;;14.90;74.00;;;;;;4989756;28;20041;-82
2023/12/23 10:41:58;;;;;;;0.47;0.10;;;14.90;74.20;;;;;;5000276;28;20045;-83
2023/12/23 10:44:25;;;;;;;0.20;0.00;;;14.90;74.00;;;;;;4991954;28;20053;-83
2023/12/23 10:46:51;;;;;;;0.13;0.10;;;14.90;74.00;;;;;;4978125;28;20093;-83
2023/12/23 10:49:17;;;;;;;0.28;0.08;;;14.90;73.80;;;;;;4972952;28;20042;-83
2023/12/23 10:51:43;;;;;;;0.47;0.20;;;14.90;73.90;;;;;;4982737;28;20452;-82
2023/12/23 10:54:09;;;;;;;0.10;0.10;;;14.90;73.90;;;;;;4994237;28;20141;-82
2023/12/23 10:56:34;;;;;;;0.00;0.00;;;14.90;74.20;;;;;;4982376;28;20116;-83
2023/12/23 10:59:00;;;;;;;0.32;0.13;;;14.90;74.20;;;;;;4998173;28;20535;-83
2023/12/23 11:01:27;;;;;;;0.10;0.10;;;14.90;74.10;;;;;;5013023;28;20049;-84
2023/12/23 11:03:54;;;;;;;1.27;0.10;;;14.90;74.60;;;;;;4994952;28;20037;-84
2023/12/23 11:06:19;;;;;;;0.10;0.10;;;14.90;74.50;;;;;;5014914;28;20499;-83
2023/12/23 11:08:45;;;;;;;1.20;0.10;;;14.80;74.30;;;;;;4994886;28;20073;-83
2023/12/23 11:11:11;;;;;;;0.20;0.10;;;14.80;74.80;;;;;;4994263;28;20125;-83
2023/12/23 11:13:36;;;;;;;0.55;0.25;;;14.80;74.40;;;;;;4998850;28;20044;-83
2023/12/23 11:16:02;;;;;;;0.20;0.10;;;14.90;74.40;;;;;;5018208;28;20500;-83
2023/12/23 11:18:28;;;;;;;0.00;0.00;;;14.90;74.20;;;;;;4987095;28;20064;-83
2023/12/23 11:20:53;;;;;;;0.20;0.10;;;14.90;74.00;;;;;;5003285;28;20074;-83
2023/12/23 11:23:28;;;;;;;0.47;0.00;;;15.00;74.10;;;;;;4991475;28;20077;-83
2023/12/23 11:25:54;;;;;;;0.00;0.00;;;14.90;73.90;;;;;;5012785;28;20072;-83
2023/12/23 11:28:20;;;;;;;0.10;0.08;;;15.00;74.80;;;;;;4982729;28;20511;-83
2023/12/23 11:30:47;;;;;;;0.00;0.00;;;15.00;73.90;;;;;;4996475;28;20700;-83
2023/12/23 11:33:13;;;;;;;0.10;0.10;;;15.00;74.00;;;;;;4982451;28;20070;-83
2023/12/23 11:35:38;;;;;;;0.52;0.10;;;15.00;73.90;;;;;;4999951;28;20041;-83
2023/12/23 11:38:04;;;;;;;0.00;0.00;;;15.00;74.00;;;;;;4997606;28;20120;-83
2023/12/23 11:40:33;;;;;;;0.20;0.17;;;15.00;73.90;;;;;;4985416;28;20411;-83
2023/12/23 11:42:59;;;;;;;0.20;0.20;;;15.00;74.00;;;;;;4985687;28;20041;-83
2023/12/23 11:45:24;;;;;;;0.10;0.10;;;15.00;74.00;;;;;;5003723;28;20050;-83
2023/12/23 11:47:50;;;;;;;0.10;0.10;;;15.00;74.10;;;;;;4977367;28;20037;-83
2023/12/23 11:50:16;;;;;;;0.20;0.20;;;15.00;74.00;;;;;;4991256;28;20392;-83
2023/12/23 11:52:41;;;;;;;0.00;0.00;;;15.00;74.00;;;;;;4966583;28;20060;-83
2023/12/23 11:55:07;;;;;;;0.60;0.10;;;15.00;74.10;;;;;;4968119;28;20046;-83
2023/12/23 11:57:33;;;;;;;0.20;0.20;;;15.00;74.10;;;;;;4961514;28;20049;-84
2023/12/23 11:59:59;;;;;;;0.20;0.20;;;15.00;74.00;;;;;;4997683;28;20047;-83
2023/12/23 12:02:27;;;;;;;0.10;0.10;;;15.00;74.00;;;;;;4988085;28;20034;-83
2023/12/23 12:04:53;;;;;;;0.70;0.10;;;15.00;74.00;;;;;;4990420;28;20041;-83
2023/12/23 12:07:19;;;;;;;0.17;0.10;;;15.00;74.00;;;;;;4987998;28;20042;-83
2023/12/23 12:09:46;;;;;;;0.63;0.00;;;15.00;74.10;;;;;;4996770;28;20134;-83
2023/12/23 12:12:12;;;;;;;0.10;0.10;;;15.00;74.00;;;;;;4998979;28;20042;-82
2023/12/23 12:14:37;;;;;;;0.00;0.00;;;15.00;74.00;;;;;;4989460;28;20049;-83
2023/12/23 12:17:03;;;;;;;0.20;0.10;;;15.00;74.80;;;;;;4979984;28;20038;-83
2023/12/23 12:19:29;;;;;;;0.10;0.10;;;15.00;73.90;;;;;;4977959;28;20045;-83
2023/12/23 12:21:55;;;;;;;0.10;0.10;;;15.00;73.90;;;;;;4998945;28;20057;-83
2023/12/23 12:24:20;;;;;;;0.10;0.10;;;14.90;74.20;;;;;;4990348;28;20100;-83
2023/12/23 12:26:52;;;;;;;0.08;0.08;;;14.90;74.20;;;;;;4948890;28;20104;-82
2023/12/23 12:29:18;;;;;;;0.00;0.00;;;14.90;74.20;;;;;;4986940;28;20121;-81
2023/12/23 12:31:43;;;;;;;1.27;0.03;;;15.00;74.30;;;;;;4993381;28;20046;-83
2023/12/23 12:34:11;;;;;;;0.82;0.28;;;15.00;74.50;;;;;;4965105;28;20065;-82
2023/12/23 12:36:37;;;;;;;0.28;0.05;;;15.00;75.00;;;;;;4993954;28;20057;-82
2023/12/23 12:39:03;;;;;;;2.83;0.60;;;15.00;75.30;;;;;;4979230;28;20053;-84